Latest Weather Observations for Paraburdoo

IDW60801

Issued at 12:02 am WST Monday 26 January 2015 (issued every 30 minutes, with the page automatically refreshed every 10 minutes)

About weather observations | Map of weather stations | Latest weather observations for WA | Other Formats
Station Details ID: 007185 Name: PARABURDOO AERO Lat: -23.17 Lon: 117.75 Height: 423.7 m
Data from the previous 72 hours. | See also: Recent months at Paraburdoo
Date/Time
WST
Temp
°C
App
Temp
°C
Dew
Point
Rel
Hum
%
Delta-T
°C
Wind Press
QNH
hPa
Press
MSL
hPa
Rain
since 9 am
mm
Dir
 
Spd
km/h
Gust
km/h
Spd
kts
Gust
kts
26/12:00am 28.4 29.5 19.6 59 5.8 NW 13 17 7 9 1007.5 1003.7 1.8
 
Date/Time
WST
Temp
°C
App
Temp
°C
Dew
Point
Rel
Hum
%
Delta-T
°C
Wind Press
QNH
hPa
Press
MSL
hPa
Rain
since 9 am
mm
Dir
 
Spd
km/h
Gust
km/h
Spd
kts
Gust
kts
25/11:30pm 27.3 30.6 19.1 61 5.4 CALM 0 7 0 4 1007.5 1003.7 1.8
25/11:00pm 28.3 29.8 16.6 49 7.4 W 4 7 2 4 1007.4 1003.6 1.8
25/10:30pm 28.9 28.7 15.8 45 8.2 W 11 15 6 8 1007.2 1003.4 1.8
25/10:00pm 28.1 30.0 17.6 53 6.8 NW 4 7 2 4 1006.5 1002.7 1.8
25/09:30pm 28.2 29.2 18.6 56 6.3 W 11 13 6 7 1006.3 1002.5 1.8
25/09:00pm 28.0 29.5 20.6 64 5.0 W 13 17 7 9 1006.3 1002.5 1.8
25/08:30pm 28.5 30.6 20.2 60 5.5 WSW 9 11 5 6 1006.4 1002.6 1.8
25/08:00pm 30.5 29.5 16.5 43 8.9 N 17 28 9 15 1006.4 1002.6 1.8
25/07:30pm 27.6 32.2 23.2 77 3.1 NE 4 13 2 7 1006.9 1003.1 1.8
25/07:00pm 28.3 29.9 20.8 63 5.1 SSE 13 17 7 9 1008.1 1004.3 1.8
25/06:30pm 28.1 28.8 20.4 63 5.1 W 17 22 9 12 1007.3 1003.5 1.8
25/06:00pm 29.9 30.5 18.7 51 7.4 SSE 13 17 7 9 1007.0 1003.2 1.8
25/05:30pm 29.8 30.7 20.1 56 6.5 SW 15 22 8 12 1005.8 1002.0 1.8
25/05:00pm 28.8 31.5 20.3 60 5.7 SW 6 13 3 7 1005.7 1001.9 1.8
25/04:30pm 28.8 26.1 20.5 61 5.6 NNW 35 50 19 27 1006.0 1002.2 1.8
25/04:24pm 28.9 27.5 21.9 66 4.8 NNW 32 50 17 27 1006.7 1002.9 1.8
25/04:00pm 28.4 29.4 22.2 69 4.3 NNW 20 30 11 16 1006.8 1003.0 1.8
25/03:30pm 27.8 32.3 24.6 83 2.3 N 9 17 5 9 1006.2 1002.3 1.6
25/03:00pm 30.5 28.8 17.2 44 8.6 S 22 32 12 17 1007.1 1003.3 0.8
25/02:54pm 29.0 26.0 17.8 50 7.2 S 30 44 16 24 1007.1 1003.3 0.8
25/02:34pm 28.9 25.7 18.7 54 6.7 S 33 54 18 29 1007.1 1003.3 0.6
25/02:30pm 29.3 26.0 19.3 55 6.6 S 35 54 19 29 1006.9 1003.1 0.6
25/02:22pm 30.0 27.8 18.8 51 7.4 S 28 48 15 26 1007.0 1003.2 0.6
25/02:09pm 31.5 30.3 18.5 46 8.5 WSW 22 39 12 21 1006.9 1003.1 0.4
25/02:00pm 31.2 28.7 18.9 48 8.1 NW 30 44 16 24 1006.8 1003.0 0.4
25/01:59pm 30.7 28.4 19.4 51 7.5 NNW 30 44 16 24 1006.9 1003.1 0.4
25/01:52pm 35.9 34.0 21.3 42 10.1 N 33 43 18 23 1006.6 1002.8 0.0
25/01:50pm 37.3 33.8 18.8 33 12.4 N 35 43 19 23 1006.4 1002.6 0.0
25/01:44pm 37.9 33.9 16.8 29 13.8 N 33 46 18 25 1006.2 1002.3 0.0
25/01:30pm 39.4 35.2 15.7 24 15.3 NNE 32 44 17 24 1006.3 1002.5 0.0
25/01:21pm 40.5 36.7 14.6 21 16.6 NE 28 48 15 26 1006.5 1002.7 0.0
25/01:00pm 40.7 37.1 14.1 21 17.0 NNE 26 35 14 19 1006.9 1003.1 0.0
25/12:30pm 39.5 36.4 14.5 23 15.9 NE 24 35 13 19 1007.3 1003.5 0.0
25/12:00pm 39.0 36.1 14.1 23 15.8 NE 22 33 12 18 1007.6 1003.8 0.0
25/11:30am 39.9 36.7 11.9 19 17.3 NNE 20 32 11 17 1007.8 1004.0 0.0
25/11:00am 39.0 35.7 12.7 21 16.4 NE 22 32 12 17 1008.0 1004.2 0.0
25/10:30am 38.2 34.1 12.7 21 15.8 NNE 26 32 14 17 1008.2 1004.4 0.0
25/10:00am 38.0 33.7 13.3 23 15.4 NNE 28 35 15 19 1008.3 1004.5 0.0
25/09:30am 37.6 34.6 13.6 24 15.0 NNE 22 30 12 16 1008.4 1004.7 0.0
25/09:00am 36.1 33.2 14.1 26 13.8 NE 22 32 12 17 1008.8 1005.0 0.2
25/08:30am 36.2 31.6 13.6 25 14.1 NE 30 43 16 23 1008.8 1005.0 0.2
25/08:00am 35.1 31.4 13.8 27 13.3 ENE 26 33 14 18 1008.8 1005.0 0.2
25/07:30am 33.7 31.6 14.7 32 11.9 ENE 19 26 10 14 1008.8 1005.0 0.2
25/07:00am 32.3 31.7 15.7 36 10.5 ENE 13 17 7 9 1008.4 1004.7 0.2
25/06:30am 30.2 30.3 16.6 44 8.7 E 11 13 6 7 1008.1 1004.3 0.2
25/05:30am 29.5 30.3 16.3 45 8.4 ENE 7 11 4 6 1007.6 1003.8 0.2
25/05:00am 29.7 29.2 15.8 43 8.8 ENE 13 15 7 8 1007.3 1003.5 0.2
25/04:30am 30.3 29.9 15.2 40 9.4 ENE 11 13 6 7 1007.2 1003.4 0.2
25/04:00am 31.3 30.4 14.9 37 10.3 ENE 13 19 7 10 1007.1 1003.3 0.2
25/03:30am 31.9 30.9 14.5 34 10.8 ENE 13 20 7 11 1007.0 1003.2 0.2
25/03:00am 32.4 29.3 14.5 33 11.2 E 24 30 13 16 1006.9 1003.1 0.2
25/02:30am 33.1 29.9 14.2 32 11.7 E 24 33 13 18 1006.5 1002.7 0.2
25/02:00am 32.5 32.5 15.1 35 11.0 SSW 9 15 5 8 1006.3 1002.5 0.0
25/01:30am 33.0 30.9 14.6 33 11.5 W 19 22 10 12 1006.0 1002.2 0.0
25/01:00am 32.2 32.1 16.1 38 10.3 W 11 17 6 9 1006.5 1002.7 0.0
25/12:30am 34.3 32.8 14.2 29 12.5 SE 15 35 8 19 1007.0 1003.2 0.0
25/12:20am 35.0 32.4 13.2 27 13.5 ESE 19 39 10 21 1006.9 1003.1 0.0
25/12:00am 33.7 33.3 15.2 33 11.7 NW 11 20 6 11 1007.3 1003.5 0.0
 
Date/Time
WST
Temp
°C
App
Temp
°C
Dew
Point
Rel
Hum
%
Delta-T
°C
Wind Press
QNH
hPa
Press
MSL
hPa
Rain
since 9 am
mm
Dir
 
Spd
km/h
Gust
km/h
Spd
kts
Gust
kts
24/11:30pm 32.4 31.1 16.7 39 10.1 NNW 19 28 10 15 1008.1 1004.3 0.0
24/11:00pm 34.3 30.5 13.7 29 12.8 NE 26 33 14 18 1008.2 1004.4 0.0
24/10:52pm 33.8 31.1 15.7 33 11.5 NE 24 32 13 17 1008.0 1004.2 0.0
24/10:30pm 33.9 34.8 16.7 35 11.1 NNE 7 11 4 6 1009.1 1005.3 0.0
24/10:03pm 36.0 31.8 13.5 26 14.0 WSW 28 46 15 25 1008.4 1004.7 0.0
24/10:00pm 36.4 31.3 13.2 25 14.4 WSW 32 46 17 25 1008.1 1004.3 0.0
24/09:30pm 36.6 31.2 12.7 23 14.7 WSW 33 54 18 29 1006.9 1003.1 0.0
24/09:20pm 37.3 31.3 12.0 22 15.5 WSW 35 57 19 31 1006.6 1002.8 0.0
24/09:00pm 35.9 31.3 13.4 26 14.0 WSW 30 44 16 24 1006.4 1002.6 0.0
24/08:58pm 36.7 32.3 12.8 24 14.7 SW 28 41 15 22 1006.5 1002.7 0.0
24/08:39pm 36.5 33.8 14.5 27 13.9 NNW 22 26 12 14 1006.2 1002.3 0.0
24/08:30pm 37.0 34.6 14.3 26 14.3 NW 20 28 11 15 1006.2 1002.3 0.0
24/08:00pm 39.4 35.8 10.7 18 17.4 NW 20 33 11 18 1005.8 1002.0 0.0
24/07:47pm 39.9 33.4 10.2 17 17.9 W 35 54 19 29 1005.8 1002.0 0.0
24/07:44pm 39.5 31.4 9.9 17 17.7 W 43 59 23 32 1005.6 1001.8 0.0
24/07:38pm 39.6 32.8 10.8 18 17.5 SW 37 59 20 32 1005.6 1001.8 0.0
24/07:35pm 40.0 34.4 10.3 17 17.9 SW 30 59 16 32 1005.4 1001.6 0.0
24/07:30pm 40.3 36.1 9.6 16 18.3 SW 22 35 12 19 1005.6 1001.8 0.0
24/07:28pm 40.2 36.3 9.6 16 18.3 SW 20 35 11 19 1005.5 1001.7 0.0
24/07:00pm 40.8 39.3 9.1 15 18.9 SSW 7 11 4 6 1005.3 1001.5 0.0
24/06:30pm 41.4 39.7 8.5 14 19.4 S 7 13 4 7 1005.0 1001.2 0.0
24/06:00pm 41.3 39.3 8.5 14 19.4 S 9 13 5 7 1004.9 1001.1 0.0
24/05:30pm 41.7 39.1 7.7 13 19.9 SE 11 15 6 8 1004.9 1001.1 0.0
24/05:00pm 41.9 38.9 7.8 13 20.1 S 13 17 7 9 1005.1 1001.3 0.0
24/04:30pm 42.2 40.1 8.1 13 20.1 WSW 9 17 5 9 1005.2 1001.4 0.0
24/04:00pm 41.8 38.3 8.8 14 19.7 SSW 17 30 9 16 1005.4 1001.6 0.0
24/03:30pm 42.8 39.9 9.6 14 20.0 W 15 26 8 14 1005.7 1001.9 0.0
24/03:00pm 42.6 39.7 9.5 14 20.0 WSW 15 33 8 18 1005.9 1002.1 0.0
24/02:30pm 41.9 38.7 9.9 15 19.3 WNW 17 28 9 15 1006.5 1002.7 0.0
24/02:00pm 42.4 41.2 10.3 15 19.6 SSW 7 15 4 8 1006.8 1003.0 0.0
24/01:30pm 40.8 38.9 9.1 15 18.8 NNW 9 20 5 11 1007.0 1003.2 0.0
24/01:00pm 40.7 38.3 10.0 16 18.5 NW 13 17 7 9 1007.4 1003.6 0.0
24/12:30pm 39.8 38.6 10.2 17 17.8 SSE 7 15 4 8 1007.9 1004.1 0.0
24/12:00pm 39.9 38.2 11.1 18 17.6 NE 11 15 6 8 1008.3 1004.5 0.0
24/11:30am 39.7 37.8 11.7 19 17.2 NE 13 26 7 14 1008.7 1004.9 0.0
24/11:00am 38.7 37.0 12.4 20 16.3 ENE 13 30 7 16 1009.2 1005.4 0.0
24/10:30am 37.6 36.4 12.9 23 15.3 NE 11 19 6 10 1009.8 1006.0 0.0
24/10:00am 36.2 34.7 14.2 26 13.8 NE 15 20 8 11 1010.0 1006.2 0.0
24/09:30am 35.2 34.4 13.9 27 13.3 ENE 11 20 6 11 1010.3 1006.5 0.0
24/09:00am 33.7 32.7 14.7 32 11.9 NE 13 17 7 9 1010.5 1006.8 0.6
24/08:30am 32.7 32.9 15.7 36 10.8 NE 9 11 5 6 1010.3 1006.5 0.6
24/08:00am 31.5 31.8 15.9 39 9.9 NE 9 11 5 6 1010.1 1006.3 0.6
24/07:30am 30.6 31.5 16.6 43 8.9 N 7 9 4 5 1009.9 1006.1 0.6
24/07:00am 29.8 31.0 17.3 47 8.0 SSE 7 9 4 5 1009.5 1005.7 0.6
24/06:30am 29.5 30.1 16.7 46 8.2 ENE 9 11 5 6 1009.1 1005.3 0.6
24/06:00am 28.6 29.6 17.8 52 7.0 NE 9 13 5 7 1008.7 1004.9 0.6
24/05:30am 28.6 29.5 17.5 51 7.1 ENE 9 11 5 6 1008.3 1004.5 0.6
24/05:00am 28.8 28.5 17.3 49 7.4 ENE 15 19 8 10 1008.2 1004.4 0.6
24/04:30am 29.2 30.2 18.6 52 6.9 NE 11 15 6 8 1008.3 1004.5 0.6
24/04:00am 29.1 29.4 18.8 53 6.8 NNE 15 17 8 9 1008.0 1004.2 0.6
24/03:30am 29.2 30.3 18.0 51 7.3 NE 9 11 5 6 1008.1 1004.3 0.6
24/03:00am 30.0 31.7 16.1 43 8.8 SSE 2 9 1 5 1008.4 1004.7 0.6
24/02:30am 30.1 30.3 15.8 42 9.0 ESE 9 13 5 7 1008.8 1005.0 0.4
24/02:00am 30.3 31.0 16.0 42 9.1 N 7 9 4 5 1009.4 1005.6 0.4
24/01:30am 30.6 31.3 16.2 41 9.1 ESE 7 13 4 7 1009.5 1005.7 0.4
24/01:00am 30.9 29.9 15.7 39 9.6 SE 15 22 8 12 1010.2 1006.4 0.4
24/12:30am 31.3 28.8 16.1 40 9.7 S 24 33 13 18 1010.4 1006.6 0.4
24/12:00am 31.4 30.4 16.6 41 9.5 SW 17 22 9 12 1011.3 1007.5 0.4
 
Date/Time
WST
Temp
°C
App
Temp
°C
Dew
Point
Rel
Hum
%
Delta-T
°C
Wind Press
QNH
hPa
Press
MSL
hPa
Rain
since 9 am
mm
Dir
 
Spd
km/h
Gust
km/h
Spd
kts
Gust
kts
23/11:30pm 32.2 31.9 16.5 39 10.1 SSW 13 26 7 14 1011.2 1007.4 0.4
23/11:00pm 32.3 31.1 17.0 40 9.9 NNE 19 28 10 15 1011.0 1007.3 0.4
23/10:30pm 32.8 28.1 14.4 33 11.5 NE 32 41 17 22 1010.6 1006.9 0.0
23/10:00pm 32.3 28.1 15.7 36 10.5 NNE 32 41 17 22 1010.2 1006.4 0.0
23/09:30pm 31.5 28.0 17.4 43 9.1 NNE 32 43 17 23 1010.7 1007.0 0.0
23/09:00pm 31.6 28.0 16.3 39 9.8 ENE 30 39 16 21 1011.7 1007.9 0.0
23/08:30pm 35.0 33.4 13.8 28 13.2 NNE 15 28 8 15 1011.9 1008.1 0.0
23/08:00pm 34.9 32.6 14.2 28 13.0 NNE 19 28 10 15 1010.6 1006.9 0.0
23/07:59pm 34.9 32.4 14.2 28 12.9 NNE 20 35 11 19 1010.6 1006.9 0.0
23/07:34pm 34.9 29.6 14.2 28 12.9 NNE 35 54 19 29 1008.5 1004.8 0.0
23/07:30pm 35.0 28.4 13.8 28 13.2 NE 41 54 22 29 1008.3 1004.5 0.0
23/07:00pm 37.2 32.1 13.2 23 14.9 NNE 32 54 17 29 1007.9 1004.1 0.0
23/06:58pm 37.6 33.2 12.9 23 15.3 NNE 28 54 15 29 1007.8 1004.0 0.0
23/06:30pm 40.2 37.9 12.9 20 17.1 SW 17 24 9 13 1006.4 1002.6 0.0
23/06:00pm 40.8 41.1 10.9 17 18.3 CALM 0 0 0 0 1005.6 1001.8 0.0
23/05:30pm 41.3 40.1 10.4 16 18.7 SSE 7 9 4 5 1004.9 1001.1 0.0
23/05:00pm 42.1 41.3 11.1 16 19.1 SSW 6 7 3 4 1004.9 1001.1 0.0
23/04:30pm 41.8 41.2 11.7 17 18.6 SW 6 9 3 5 1005.3 1001.5 0.0
23/04:00pm 41.4 40.1 11.4 17 18.5 WSW 9 20 5 11 1005.3 1001.5 0.0
23/03:30pm 41.6 40.0 11.6 17 18.5 SSW 11 17 6 9 1005.6 1001.8 0.0
23/03:00pm 41.2 40.1 12.1 18 18.1 SE 9 17 5 9 1006.2 1002.3 0.0
23/02:30pm 41.5 40.5 12.4 18 18.2 SW 9 19 5 10 1006.6 1002.8 0.0
23/02:00pm 41.2 38.9 13.0 19 17.8 S 17 26 9 14 1007.0 1003.2 0.0
23/01:30pm 41.1 39.8 13.7 20 17.4 SSW 13 17 7 9 1007.2 1003.4 0.0
23/01:00pm 41.3 40.0 13.8 20 17.5 SW 13 20 7 11 1007.5 1003.7 0.0
23/12:30pm 40.4 38.1 13.1 20 17.1 SSE 17 28 9 15 1007.8 1004.0 0.0
23/12:00pm 39.9 37.4 14.1 21 16.4 S 20 32 11 17 1008.4 1004.7 0.0
23/11:30am 39.0 37.1 14.1 23 15.8 S 17 24 9 13 1008.8 1005.0 0.0
23/11:00am 38.5 39.9 17.3 28 14.0 N 6 11 3 6 1009.4 1005.6 0.0
23/10:30am 37.2 38.1 16.7 29 13.4 S 7 15 4 8 1009.7 1005.9 0.0
23/10:00am 35.6 37.0 18.7 37 11.3 WSW 9 13 5 7 1009.9 1006.1 0.0
23/09:30am 34.3 36.4 17.1 36 11.2 NW 2 6 1 3 1009.9 1006.1 0.0
23/09:00am 32.9 34.5 17.9 41 9.8 NNE 6 11 3 6 1010.0 1006.2 18.8
23/08:30am 32.0 34.7 18.6 45 8.8 N 2 9 1 5 1009.6 1005.8 18.8
23/08:00am 31.4 32.7 18.4 46 8.5 NNE 9 13 5 7 1009.6 1005.8 18.8
23/07:30am 30.7 31.1 18.1 47 8.2 NNE 13 17 7 9 1009.6 1005.8 18.8
23/07:00am 28.9 31.8 21.1 62 5.3 NNE 7 9 4 5 1009.5 1005.7 18.8
23/06:30am 28.7 30.4 19.3 56 6.2 WNW 9 13 5 7 1008.7 1004.9 18.8
23/06:00am 28.5 29.7 19.1 56 6.2 E 11 13 6 7 1008.3 1004.5 18.8
23/05:30am 28.8 30.0 18.3 53 6.8 ENE 9 11 5 6 1008.4 1004.7 18.8
23/05:00am 30.0 30.2 16.8 45 8.4 S 11 13 6 7 1008.7 1004.9 18.8
23/04:30am 31.5 30.1 15.5 38 10.1 SSE 17 30 9 16 1008.7 1004.9 18.8
23/04:00am 31.9 31.1 16.2 38 10.0 NNW 15 20 8 11 1007.9 1004.1 18.8
23/03:30am 32.9 29.4 14.5 33 11.5 NW 26 35 14 19 1008.3 1004.5 18.8
23/03:27am 33.8 29.7 13.8 30 12.4 NW 28 35 15 19 1008.4 1004.7 18.8
23/03:00am 32.9 32.1 15.0 34 11.3 SE 13 32 7 17 1009.8 1006.0 18.8
23/02:30am 29.5 29.8 18.0 50 7.5 ESE 13 15 7 8 1009.6 1005.8 18.8
23/02:00am 30.5 31.0 16.5 43 8.9 ENE 9 22 5 12 1009.8 1006.0 18.8
23/01:30am 31.2 28.3 16.0 40 9.6 N 26 39 14 21 1009.5 1005.7 18.8
23/01:00am 29.1 25.8 17.9 50 7.3 N 32 39 17 21 1010.8 1007.1 18.8
23/12:51am 27.4 25.7 19.7 63 5.1 NNE 28 37 15 20 1011.3 1007.5 18.8
23/12:30am 27.6 27.8 19.4 61 5.4 NE 17 22 9 12 1012.6 1008.8 18.8

Other Formats:

Comma delimited format used in spreadsheet applications
http://www.bom.gov.au/fwo/IDW60801/IDW60801.94316.axf

JavaScript Object Notation format (JSON) in row-major order
http://www.bom.gov.au/fwo/IDW60801/IDW60801.94316.json